createdAt,value
2018-09-03T00:02:18.164Z,19.50
2018-09-03T00:04:47.172Z,19.40
2018-09-03T00:07:16.246Z,19.50
2018-09-03T00:09:45.078Z,19.30
2018-09-03T00:12:14.052Z,19.20
2018-09-03T00:14:42.891Z,19.10
2018-09-03T00:17:12.270Z,19.10
2018-09-03T00:19:42.227Z,19.10
2018-09-03T00:22:12.124Z,19.10
2018-09-03T00:24:42.412Z,19.10
2018-09-03T00:27:12.541Z,19.00
2018-09-03T00:29:42.823Z,18.70
2018-09-03T00:32:19.204Z,18.60
2018-09-03T00:34:53.817Z,18.90
2018-09-03T00:39:32.942Z,19.00
2018-09-03T00:42:07.012Z,18.90
2018-09-03T00:44:41.119Z,18.80
2018-09-03T00:47:11.191Z,18.80
2018-09-03T00:49:40.413Z,18.90
2018-09-03T00:52:09.300Z,18.80
2018-09-03T00:54:39.220Z,18.90
2018-09-03T00:57:08.193Z,19.00
2018-09-03T00:59:39.248Z,19.20
2018-09-03T01:02:08.373Z,19.30
2018-09-03T01:04:37.338Z,19.40
2018-09-03T01:07:06.468Z,19.40
2018-09-03T01:09:35.533Z,19.20
2018-09-03T01:12:05.208Z,18.80
2018-09-03T01:14:34.408Z,18.90
2018-09-03T01:17:03.244Z,19.10
2018-09-03T01:19:32.359Z,19.00
2018-09-03T01:22:01.668Z,19.10
2018-09-03T01:24:30.540Z,19.20
2018-09-03T01:26:59.493Z,19.30
2018-09-03T01:29:28.502Z,19.40
2018-09-03T01:32:00.644Z,19.50
2018-09-03T01:34:30.542Z,19.50
2018-09-03T01:37:02.952Z,19.50
2018-09-03T01:39:34.167Z,19.40
2018-09-03T01:42:05.707Z,19.50
2018-09-03T01:44:35.961Z,19.50
2018-09-03T01:47:07.574Z,19.30
2018-09-03T01:49:37.669Z,19.50
2018-09-03T01:52:09.986Z,19.50
2018-09-03T01:54:43.315Z,19.20
2018-09-03T01:57:14.150Z,19.30
2018-09-03T01:59:47.344Z,19.20
2018-09-03T02:02:17.873Z,19.40
2018-09-03T02:04:50.063Z,19.30
2018-09-03T02:07:23.578Z,19.10
2018-09-03T02:09:55.662Z,19.20
2018-09-03T02:12:29.633Z,19.40
2018-09-03T02:15:00.694Z,19.50
2018-09-03T02:17:32.731Z,19.50
2018-09-03T02:20:03.746Z,19.50
2018-09-03T02:22:36.672Z,19.40
2018-09-03T02:25:08.472Z,19.30
2018-09-03T02:27:39.161Z,19.30
2018-09-03T02:30:09.811Z,19.30
2018-09-03T02:32:40.769Z,19.10
2018-09-03T02:35:12.105Z,19.20
2018-09-03T02:37:42.653Z,19.20
2018-09-03T02:40:15.901Z,19.00
2018-09-03T02:42:48.505Z,19.00
2018-09-03T02:45:19.219Z,19.10
2018-09-03T02:47:50.020Z,19.30
2018-09-03T02:50:19.675Z,19.20
2018-09-03T02:55:28.987Z,19.30
2018-09-03T02:57:59.857Z,19.30
2018-09-03T03:03:08.020Z,19.30
2018-09-03T03:05:40.110Z,19.40
2018-09-03T03:08:12.664Z,19.40
2018-09-03T03:10:44.177Z,19.30
2018-09-03T03:13:16.729Z,19.30
2018-09-03T03:15:47.898Z,19.30
2018-09-03T03:18:23.268Z,19.30
2018-09-03T03:21:06.261Z,19.40
2018-09-03T03:23:41.194Z,19.30
2018-09-03T03:26:22.857Z,19.10
2018-09-03T03:28:59.321Z,19.30
2018-09-03T03:31:33.888Z,19.30
2018-09-03T03:34:09.295Z,19.40
2018-09-03T03:36:48.507Z,19.20
2018-09-03T03:39:26.165Z,19.30
2018-09-03T03:42:02.593Z,19.30
2018-09-03T03:44:39.992Z,19.20
2018-09-03T03:47:13.691Z,19.30
2018-09-03T03:49:48.314Z,19.40
2018-09-03T03:52:26.069Z,19.30
2018-09-03T03:55:04.026Z,19.10
2018-09-03T03:57:41.824Z,19.20
2018-09-03T04:00:16.686Z,19.20
2018-09-03T04:02:50.765Z,19.30
2018-09-03T04:05:32.558Z,19.30
2018-09-03T04:08:13.799Z,19.10
2018-09-03T04:10:49.341Z,19.20
2018-09-03T04:13:24.438Z,19.30
2018-09-03T04:18:48.605Z,19.10
2018-09-03T04:21:26.748Z,19.20
2018-09-03T04:29:14.088Z,19.10
2018-09-03T04:31:49.620Z,18.60
2018-09-03T04:34:32.537Z,18.80
2018-09-03T04:37:12.861Z,18.90
2018-09-03T04:39:54.044Z,19.00
2018-09-03T04:42:34.041Z,19.10
2018-09-03T04:45:09.122Z,19.20
2018-09-03T04:47:42.101Z,19.10
2018-09-03T04:50:26.348Z,19.10
2018-09-03T04:53:07.843Z,18.90
2018-09-03T04:55:43.670Z,18.90
2018-09-03T04:58:21.294Z,19.10
2018-09-03T05:00:58.164Z,19.00
2018-09-03T05:03:37.064Z,18.60
2018-09-03T05:06:17.908Z,18.70
2018-09-03T05:08:55.990Z,18.90
2018-09-03T05:11:32.274Z,18.90
2018-09-03T05:14:08.200Z,18.90
2018-09-03T05:16:52.735Z,19.10
2018-09-03T05:19:36.634Z,19.20
2018-09-03T05:22:17.599Z,19.30
2018-09-03T05:24:52.508Z,19.40
2018-09-03T05:27:33.163Z,19.60
2018-09-03T05:30:17.175Z,19.20
2018-09-03T05:32:50.907Z,19.10
2018-09-03T05:35:24.808Z,19.20
2018-09-03T05:38:05.555Z,19.50
2018-09-03T05:40:42.907Z,19.70
2018-09-03T05:43:21.611Z,19.80
2018-09-03T05:45:59.540Z,19.80
2018-09-03T05:48:38.858Z,20.10
2018-09-03T05:51:13.207Z,20.30
2018-09-03T05:53:52.102Z,20.20
2018-09-03T05:56:33.493Z,20.30
2018-09-03T05:59:15.762Z,20.30
2018-09-03T06:01:58.810Z,20.30
2018-09-03T06:04:34.973Z,20.20
2018-09-03T06:10:00.662Z,20.00
2018-09-03T06:12:41.837Z,20.10
2018-09-03T06:18:07.547Z,20.10
2018-09-03T06:20:58.166Z,20.00
2018-09-03T06:28:56.733Z,20.00
2018-09-03T06:31:40.484Z,19.60
2018-09-03T06:34:22.203Z,19.80
2018-09-03T06:37:05.097Z,20.00
2018-09-03T06:39:50.245Z,20.20
2018-09-03T06:42:31.810Z,20.10
2018-09-03T06:45:14.387Z,20.00
2018-09-03T06:47:58.352Z,20.50
2018-09-03T06:53:27.667Z,20.70
2018-09-03T06:56:17.577Z,20.80
2018-09-03T06:59:06.601Z,21.10
2018-09-03T07:01:48.819Z,20.80
2018-09-03T07:04:34.606Z,20.60
2018-09-03T07:07:14.402Z,20.70
2018-09-03T07:09:58.080Z,20.50
2018-09-03T07:12:39.989Z,20.60
2018-09-03T07:15:24.958Z,20.70
2018-09-03T07:18:06.046Z,20.90
2018-09-03T07:20:46.346Z,20.80
2018-09-03T07:23:33.029Z,20.90
2018-09-03T07:26:22.083Z,20.80
2018-09-03T07:29:06.076Z,20.60
2018-09-03T07:31:53.740Z,20.40
2018-09-03T07:34:39.550Z,20.70
2018-09-03T07:37:26.478Z,20.70
2018-09-03T07:40:08.603Z,21.00
2018-09-03T07:42:57.203Z,21.50
2018-09-03T07:45:43.419Z,20.90
2018-09-03T07:48:27.878Z,21.20
2018-09-03T07:51:16.265Z,21.50
2018-09-03T07:54:02.840Z,21.00
2018-09-03T07:56:48.273Z,21.20
2018-09-03T07:59:38.394Z,21.70
2018-09-03T08:02:21.416Z,21.60
2018-09-03T08:05:07.988Z,22.20
2018-09-03T08:07:48.493Z,21.40
2018-09-03T08:10:35.692Z,21.70
2018-09-03T08:13:26.987Z,21.80
2018-09-03T08:19:03.813Z,22.00
2018-09-03T08:21:48.577Z,21.50
2018-09-03T08:24:26.879Z,21.40
2018-09-03T08:27:18.284Z,21.40
2018-09-03T08:30:04.201Z,21.50
2018-09-03T08:32:56.222Z,21.90
2018-09-03T08:35:35.797Z,22.30
2018-09-03T08:38:19.776Z,22.20
2018-09-03T08:40:55.891Z,22.30
2018-09-03T08:43:34.311Z,21.90
2018-09-03T08:46:17.645Z,21.80
2018-09-03T08:48:59.906Z,22.10
2018-09-03T08:54:36.710Z,21.90
2018-09-03T08:57:22.196Z,21.70
2018-09-03T09:02:55.853Z,21.40
2018-09-03T09:05:38.395Z,21.50
2018-09-03T09:08:19.328Z,21.40
2018-09-03T09:10:59.098Z,21.70
2018-09-03T09:13:47.727Z,22.30
2018-09-03T09:19:14.194Z,22.60
2018-09-03T09:21:59.331Z,22.80
2018-09-03T09:24:43.769Z,23.00
2018-09-03T09:27:32.165Z,23.20
2018-09-03T09:30:15.657Z,22.60
2018-09-03T09:33:06.428Z,22.70
2018-09-03T09:35:51.795Z,23.10
2018-09-03T09:41:29.614Z,23.20
2018-09-03T09:44:19.112Z,23.20
2018-09-03T09:47:01.311Z,23.20
2018-09-03T09:49:46.333Z,23.40
2018-09-03T09:52:29.388Z,23.00
2018-09-03T09:55:21.378Z,23.10
2018-09-03T09:58:03.509Z,23.10
2018-09-03T10:00:50.663Z,23.10
2018-09-03T10:03:38.164Z,23.40
2018-09-03T10:06:22.028Z,23.70
2018-09-03T10:09:07.507Z,23.70
2018-09-03T10:11:47.646Z,24.00
2018-09-03T10:14:30.379Z,23.80
2018-09-03T10:17:11.370Z,23.70
2018-09-03T10:19:51.282Z,23.80
2018-09-03T10:22:32.590Z,23.90
2018-09-03T10:25:21.735Z,23.70
2018-09-03T10:30:56.033Z,23.30
2018-09-03T10:33:37.987Z,23.50
2018-09-03T10:36:29.636Z,23.30
2018-09-03T10:39:19.486Z,22.80
2018-09-03T10:41:58.724Z,22.30
2018-09-03T10:44:38.969Z,22.40
2018-09-03T10:47:29.107Z,22.80
2018-09-03T10:50:16.656Z,23.30
2018-09-03T10:55:48.808Z,22.90
2018-09-03T10:58:39.536Z,22.90
2018-09-03T11:01:28.248Z,23.10
2018-09-03T11:04:13.325Z,23.10
2018-09-03T11:06:56.149Z,23.40
2018-09-03T11:12:25.323Z,23.70
2018-09-03T11:15:02.083Z,23.40
2018-09-03T11:17:43.070Z,23.20
2018-09-03T11:20:30.848Z,23.20
2018-09-03T11:23:14.805Z,23.10
2018-09-03T11:28:42.860Z,23.80
2018-09-03T11:31:23.653Z,24.10
2018-09-03T11:34:05.764Z,24.20
2018-09-03T11:36:51.560Z,24.40
2018-09-03T11:39:42.143Z,24.50
2018-09-03T11:42:32.639Z,24.70
2018-09-03T11:45:12.031Z,24.30
2018-09-03T11:47:55.244Z,23.60
2018-09-03T11:50:42.540Z,23.30
2018-09-03T11:53:17.047Z,23.50
2018-09-03T11:55:53.673Z,23.80
2018-09-03T11:58:28.766Z,24.00
2018-09-03T12:01:03.879Z,24.30
2018-09-03T12:03:37.009Z,24.40
2018-09-03T12:06:13.977Z,24.40
2018-09-03T12:08:50.541Z,24.50
2018-09-03T12:11:29.599Z,24.10
2018-09-03T12:14:24.968Z,24.10
2018-09-03T12:17:00.813Z,24.30
2018-09-03T12:19:41.101Z,24.50
2018-09-03T12:22:25.041Z,24.60
2018-09-03T12:25:03.457Z,24.90
2018-09-03T12:27:44.641Z,25.20
2018-09-03T12:30:23.983Z,25.70
2018-09-03T12:33:00.842Z,25.70
2018-09-03T12:35:43.503Z,25.40
2018-09-03T12:38:22.702Z,24.80
2018-09-03T12:41:07.777Z,24.40
2018-09-03T12:43:43.431Z,24.50
2018-09-03T12:49:00.868Z,26.10
2018-09-03T12:51:39.919Z,25.20
2018-09-03T12:54:15.483Z,25.20
2018-09-03T12:56:57.242Z,25.00
2018-09-03T12:59:39.103Z,24.90
2018-09-03T13:02:22.000Z,25.00
2018-09-03T13:04:59.549Z,24.70
2018-09-03T13:07:47.493Z,24.90
2018-09-03T13:13:06.460Z,24.60
2018-09-03T13:15:46.607Z,24.70
2018-09-03T13:18:28.215Z,24.70
2018-09-03T13:21:10.476Z,24.60
2018-09-03T13:23:47.224Z,24.30
2018-09-03T13:26:26.131Z,24.20
2018-09-03T13:29:06.589Z,24.30
2018-09-03T13:31:50.227Z,24.30
2018-09-03T13:34:28.644Z,24.60
2018-09-03T13:39:46.593Z,24.70
2018-09-03T13:42:22.449Z,24.40
2018-09-03T13:47:45.854Z,24.40
2018-09-03T13:50:19.843Z,24.30
2018-09-03T13:52:55.582Z,24.20
2018-09-03T13:55:38.825Z,24.30
2018-09-03T13:58:22.291Z,24.00
2018-09-03T14:01:04.829Z,23.90
2018-09-03T14:03:43.997Z,24.00
2018-09-03T14:06:25.760Z,23.90
2018-09-03T14:09:03.015Z,24.10
2018-09-03T14:11:40.424Z,24.60
2018-09-03T14:14:17.787Z,25.10
2018-09-03T14:16:51.709Z,25.50
2018-09-03T14:19:33.355Z,25.60
2018-09-03T14:22:11.588Z,25.00
2018-09-03T14:24:48.571Z,25.30
2018-09-03T14:27:25.469Z,25.70
2018-09-03T14:30:08.964Z,25.80
2018-09-03T14:32:54.750Z,25.80
2018-09-03T14:35:34.506Z,25.40
2018-09-03T14:38:14.058Z,25.30
2018-09-03T14:40:52.943Z,25.20
2018-09-03T14:43:29.473Z,25.20
2018-09-03T14:46:13.302Z,25.10
2018-09-03T14:48:57.144Z,25.00
2018-09-03T14:51:37.859Z,25.60
2018-09-03T14:54:20.645Z,25.60
2018-09-03T14:56:54.530Z,25.10
2018-09-03T14:59:33.047Z,25.50
2018-09-03T15:02:16.894Z,25.50
2018-09-03T15:04:52.708Z,25.20
2018-09-03T15:07:33.720Z,25.00
2018-09-03T15:10:16.639Z,24.40
2018-09-03T15:13:03.850Z,25.10
2018-09-03T15:15:48.423Z,24.90
2018-09-03T15:18:22.114Z,24.70
2018-09-03T15:20:58.543Z,24.60
2018-09-03T15:23:32.093Z,24.50
2018-09-03T15:26:09.411Z,24.40
2018-09-03T15:28:51.695Z,24.50
2018-09-03T15:31:31.443Z,25.20
2018-09-03T15:34:08.195Z,26.00
2018-09-03T15:36:49.423Z,26.10
2018-09-03T15:39:28.514Z,26.50
2018-09-03T15:42:12.851Z,26.10
2018-09-03T15:44:52.764Z,26.50
2018-09-03T15:47:26.438Z,26.90
2018-09-03T15:55:35.500Z,26.20
2018-09-03T15:58:14.084Z,26.20
2018-09-03T16:00:54.190Z,26.20
2018-09-03T16:03:28.751Z,25.40
2018-09-03T16:08:48.604Z,25.40
2018-09-03T16:11:25.648Z,25.50
2018-09-03T16:16:47.511Z,25.60
2018-09-03T16:19:24.624Z,25.40
2018-09-03T16:22:05.184Z,25.30
2018-09-03T16:24:46.379Z,25.10
2018-09-03T16:27:27.340Z,24.80
2018-09-03T16:30:11.898Z,24.70
2018-09-03T16:32:50.429Z,24.50
2018-09-03T16:35:26.784Z,24.20
2018-09-03T16:38:05.558Z,24.50
2018-09-03T16:40:41.907Z,24.70
2018-09-03T16:46:00.846Z,24.40
2018-09-03T16:48:44.628Z,24.10
2018-09-03T16:51:21.665Z,24.00
2018-09-03T16:53:58.853Z,24.30
2018-09-03T16:56:39.961Z,24.50
2018-09-03T16:59:18.448Z,24.30
2018-09-03T17:01:56.048Z,24.20
2018-09-03T17:04:32.532Z,23.80
2018-09-03T17:07:12.124Z,24.00
2018-09-03T17:09:46.309Z,24.10
2018-09-03T17:12:27.032Z,23.90
2018-09-03T17:17:46.127Z,23.90
2018-09-03T17:20:28.143Z,23.50
2018-09-03T17:23:14.134Z,22.90
2018-09-03T17:25:52.771Z,23.00
2018-09-03T17:28:34.902Z,23.00
2018-09-03T17:31:15.510Z,22.90
2018-09-03T17:33:57.604Z,22.80
2018-09-03T17:36:40.515Z,22.40
2018-09-03T17:39:19.195Z,22.60
2018-09-03T17:41:58.100Z,22.90
2018-09-03T17:44:36.956Z,22.70
2018-09-03T17:47:20.750Z,22.70
2018-09-03T17:55:32.778Z,22.60
2018-09-03T17:58:07.522Z,22.40
2018-09-03T18:00:49.764Z,22.20
2018-09-03T18:03:30.309Z,22.50
2018-09-03T18:06:13.326Z,22.50
2018-09-03T18:08:48.856Z,22.20
2018-09-03T18:11:28.568Z,22.30
2018-09-03T18:14:04.785Z,22.40
2018-09-03T18:16:44.330Z,22.40
2018-09-03T18:19:26.396Z,22.40
2018-09-03T18:22:03.419Z,22.40
2018-09-03T18:24:45.905Z,22.10
2018-09-03T18:27:21.662Z,22.00
2018-09-03T18:30:06.681Z,21.90
2018-09-03T18:40:42.309Z,21.50
2018-09-03T18:43:25.609Z,21.50
2018-09-03T18:46:04.073Z,21.60
2018-09-03T18:48:46.170Z,21.70
2018-09-03T18:51:24.112Z,21.90
2018-09-03T18:54:05.105Z,21.90
2018-09-03T18:56:44.933Z,21.90
2018-09-03T18:59:23.942Z,21.90
2018-09-03T19:02:07.360Z,21.70
2018-09-03T19:04:48.850Z,21.90
2018-09-03T19:07:30.258Z,21.90
2018-09-03T19:10:14.893Z,21.90
2018-09-03T19:12:52.854Z,21.90
2018-09-03T19:18:13.355Z,21.80
2018-09-03T19:20:50.297Z,21.60
2018-09-03T19:23:34.276Z,21.40
2018-09-03T19:26:13.648Z,21.30
2018-09-03T19:28:55.382Z,21.40
2018-09-03T19:31:33.354Z,21.40
2018-09-03T19:34:13.127Z,21.70
2018-09-03T19:36:50.736Z,21.90
2018-09-03T19:39:25.163Z,21.80
2018-09-03T19:42:02.436Z,21.80
2018-09-03T19:44:39.925Z,21.80
2018-09-03T19:50:00.018Z,21.60
2018-09-03T19:52:42.584Z,21.60
2018-09-03T19:55:18.101Z,21.40
2018-09-03T19:57:57.302Z,21.50
2018-09-03T20:00:42.897Z,21.60
2018-09-03T20:03:21.937Z,21.70
2018-09-03T20:08:48.989Z,21.50
2018-09-03T20:11:29.315Z,21.40
2018-09-03T20:16:52.182Z,21.20
2018-09-03T20:19:33.327Z,21.10
2018-09-03T20:22:13.781Z,21.20
2018-09-03T20:24:50.541Z,21.30
2018-09-03T20:27:36.029Z,20.90
2018-09-03T20:32:59.282Z,20.80
2018-09-03T20:35:38.522Z,20.80
2018-09-03T20:38:12.710Z,20.80
2018-09-03T20:40:53.775Z,20.80
2018-09-03T20:46:12.769Z,20.80
2018-09-03T20:48:55.738Z,20.90
2018-09-03T20:51:37.222Z,20.90
2018-09-03T20:54:24.159Z,21.00
2018-09-03T20:59:53.114Z,21.00
2018-09-03T21:02:32.793Z,20.60
2018-09-03T21:05:12.118Z,20.40
2018-09-03T21:07:48.956Z,20.60
2018-09-03T21:10:26.336Z,20.70
2018-09-03T21:13:06.010Z,20.30
2018-09-03T21:15:45.365Z,20.20
2018-09-03T21:18:26.386Z,20.60
2018-09-03T21:21:10.740Z,20.70
2018-09-03T21:23:55.069Z,20.70
2018-09-03T21:26:35.953Z,20.70
2018-09-03T21:29:11.713Z,20.60
2018-09-03T21:31:48.903Z,20.70
2018-09-03T21:34:27.136Z,20.70
2018-09-03T21:37:08.223Z,20.90
2018-09-03T21:39:50.032Z,21.00
2018-09-03T21:42:29.226Z,21.00
2018-09-03T21:45:04.697Z,20.50
2018-09-03T21:47:44.513Z,20.30
2018-09-03T21:50:24.994Z,20.50
2018-09-03T21:53:00.450Z,20.70
2018-09-03T21:55:40.363Z,20.90
2018-09-03T21:58:16.218Z,20.80
2018-09-03T22:00:59.489Z,20.80
2018-09-03T22:03:35.711Z,20.70
2018-09-03T22:06:15.639Z,20.60
2018-09-03T22:11:43.901Z,20.60
2018-09-03T22:14:29.842Z,20.60
2018-09-03T22:17:07.985Z,20.50
2018-09-03T22:22:26.129Z,20.40
2018-09-03T22:25:06.899Z,20.50
2018-09-03T22:27:49.472Z,20.10
2018-09-03T22:30:26.687Z,20.10
2018-09-03T22:38:33.948Z,19.90
2018-09-03T22:41:17.483Z,19.80
2018-09-03T22:46:42.984Z,20.10
2018-09-03T22:49:25.644Z,20.10
2018-09-03T22:52:10.872Z,20.10
2018-09-03T22:54:47.968Z,20.20
2018-09-03T22:57:26.121Z,19.90
2018-09-03T23:00:03.727Z,19.90
2018-09-03T23:02:43.653Z,19.90
2018-09-03T23:05:26.641Z,20.00
2018-09-03T23:08:10.192Z,20.10
2018-09-03T23:10:50.966Z,19.90
2018-09-03T23:13:32.760Z,19.90
2018-09-03T23:16:10.839Z,20.00
2018-09-03T23:18:51.305Z,20.10
2018-09-03T23:21:31.940Z,20.00
2018-09-03T23:24:12.530Z,20.00
2018-09-03T23:26:49.279Z,20.00
2018-09-03T23:29:28.876Z,19.90
2018-09-03T23:32:05.693Z,19.80
2018-09-03T23:34:43.578Z,20.10
2018-09-03T23:37:23.140Z,19.90
2018-09-03T23:40:00.353Z,19.90
2018-09-03T23:42:40.440Z,19.90
2018-09-03T23:48:09.646Z,19.70
2018-09-03T23:50:50.367Z,19.70
2018-09-03T23:53:31.766Z,19.80
2018-09-03T23:56:14.151Z,19.70
2018-09-03T23:58:54.085Z,19.80
